sensor_id;sensor_type;location;lat;lon;timestamp;P1;durP1;ratioP1;P2;durP2;ratioP2
49514;SDS011;35415;47.870;16.058;2023-06-14T00:00:50;4.22;;;2.53;;
49514;SDS011;35415;47.870;16.058;2023-06-14T00:03:18;3.47;;;2.50;;
49514;SDS011;35415;47.870;16.058;2023-06-14T00:05:47;6.47;;;2.85;;
49514;SDS011;35415;47.870;16.058;2023-06-14T00:08:15;3.92;;;2.78;;
49514;SDS011;35415;47.870;16.058;2023-06-14T00:10:45;5.65;;;2.65;;
49514;SDS011;35415;47.870;16.058;2023-06-14T00:13:13;5.30;;;2.97;;
49514;SDS011;35415;47.870;16.058;2023-06-14T00:15:41;4.07;;;2.90;;
49514;SDS011;35415;47.870;16.058;2023-06-14T00:18:09;4.85;;;3.15;;
49514;SDS011;35415;47.870;16.058;2023-06-14T00:20:37;4.30;;;2.88;;
49514;SDS011;35415;47.870;16.058;2023-06-14T00:23:04;5.60;;;2.88;;
49514;SDS011;35415;47.870;16.058;2023-06-14T00:25:32;5.68;;;2.65;;
49514;SDS011;35415;47.870;16.058;2023-06-14T00:28:01;5.10;;;2.92;;
49514;SDS011;35415;47.870;16.058;2023-06-14T00:30:31;6.65;;;3.00;;
49514;SDS011;35415;47.870;16.058;2023-06-14T00:32:59;6.05;;;2.65;;
49514;SDS011;35415;47.870;16.058;2023-06-14T00:35:26;5.18;;;2.85;;
49514;SDS011;35415;47.870;16.058;2023-06-14T00:37:54;3.50;;;2.80;;
49514;SDS011;35415;47.870;16.058;2023-06-14T00:40:21;5.30;;;3.05;;
49514;SDS011;35415;47.870;16.058;2023-06-14T00:42:52;4.38;;;2.97;;
49514;SDS011;35415;47.870;16.058;2023-06-14T00:45:21;6.03;;;2.88;;
49514;SDS011;35415;47.870;16.058;2023-06-14T00:47:48;5.82;;;2.53;;
49514;SDS011;35415;47.870;16.058;2023-06-14T00:50:18;4.20;;;3.03;;
49514;SDS011;35415;47.870;16.058;2023-06-14T00:52:48;4.20;;;3.20;;
49514;SDS011;35415;47.870;16.058;2023-06-14T00:55:17;3.95;;;2.67;;
49514;SDS011;35415;47.870;16.058;2023-06-14T00:57:44;5.72;;;2.65;;
49514;SDS011;35415;47.870;16.058;2023-06-14T01:00:12;6.35;;;2.85;;
49514;SDS011;35415;47.870;16.058;2023-06-14T01:02:42;5.13;;;2.85;;
49514;SDS011;35415;47.870;16.058;2023-06-14T01:05:09;4.82;;;2.88;;
49514;SDS011;35415;47.870;16.058;2023-06-14T01:07:41;3.65;;;2.92;;
49514;SDS011;35415;47.870;16.058;2023-06-14T01:10:18;5.45;;;2.67;;
49514;SDS011;35415;47.870;16.058;2023-06-14T01:12:54;5.03;;;2.70;;
49514;SDS011;35415;47.870;16.058;2023-06-14T01:15:28;5.50;;;3.30;;
49514;SDS011;35415;47.870;16.058;2023-06-14T01:17:59;4.25;;;3.40;;
49514;SDS011;35415;47.870;16.058;2023-06-14T01:20:29;6.70;;;3.38;;
49514;SDS011;35415;47.870;16.058;2023-06-14T01:23:04;5.57;;;2.90;;
49514;SDS011;35415;47.870;16.058;2023-06-14T01:25:31;5.50;;;2.67;;
49514;SDS011;35415;47.870;16.058;2023-06-14T01:31:00;3.67;;;2.55;;
49514;SDS011;35415;47.870;16.058;2023-06-14T01:33:30;5.57;;;2.78;;
49514;SDS011;35415;47.870;16.058;2023-06-14T01:35:59;4.30;;;3.05;;
49514;SDS011;35415;47.870;16.058;2023-06-14T01:38:29;4.68;;;3.03;;
49514;SDS011;35415;47.870;16.058;2023-06-14T01:40:57;4.28;;;2.72;;
49514;SDS011;35415;47.870;16.058;2023-06-14T01:43:26;7.25;;;2.85;;
49514;SDS011;35415;47.870;16.058;2023-06-14T01:45:57;4.85;;;3.40;;
49514;SDS011;35415;47.870;16.058;2023-06-14T01:48:26;4.97;;;2.85;;
49514;SDS011;35415;47.870;16.058;2023-06-14T01:50:54;9.25;;;3.00;;
49514;SDS011;35415;47.870;16.058;2023-06-14T01:53:21;3.72;;;2.72;;
49514;SDS011;35415;47.870;16.058;2023-06-14T01:55:50;5.03;;;3.53;;
49514;SDS011;35415;47.870;16.058;2023-06-14T01:58:19;3.63;;;2.88;;
49514;SDS011;35415;47.870;16.058;2023-06-14T02:00:47;3.13;;;2.70;;
49514;SDS011;35415;47.870;16.058;2023-06-14T02:03:14;4.32;;;2.78;;
49514;SDS011;35415;47.870;16.058;2023-06-14T02:05:44;4.07;;;2.95;;
49514;SDS011;35415;47.870;16.058;2023-06-14T02:08:12;3.47;;;2.65;;
49514;SDS011;35415;47.870;16.058;2023-06-14T02:10:40;5.68;;;3.00;;
49514;SDS011;35415;47.870;16.058;2023-06-14T02:13:08;4.03;;;2.47;;
49514;SDS011;35415;47.870;16.058;2023-06-14T02:15:37;3.50;;;2.63;;
49514;SDS011;35415;47.870;16.058;2023-06-14T02:18:06;7.20;;;3.08;;
49514;SDS011;35415;47.870;16.058;2023-06-14T02:20:33;6.72;;;2.92;;
49514;SDS011;35415;47.870;16.058;2023-06-14T02:23:01;4.72;;;2.90;;
49514;SDS011;35415;47.870;16.058;2023-06-14T02:25:29;4.72;;;2.80;;
49514;SDS011;35415;47.870;16.058;2023-06-14T02:27:56;4.50;;;3.10;;
49514;SDS011;35415;47.870;16.058;2023-06-14T02:30:26;3.90;;;3.20;;
49514;SDS011;35415;47.870;16.058;2023-06-14T02:32:53;4.60;;;3.60;;
49514;SDS011;35415;47.870;16.058;2023-06-14T02:35:20;4.05;;;2.60;;
49514;SDS011;35415;47.870;16.058;2023-06-14T02:37:49;3.60;;;2.60;;
49514;SDS011;35415;47.870;16.058;2023-06-14T02:40:17;4.15;;;2.95;;
49514;SDS011;35415;47.870;16.058;2023-06-14T02:42:45;6.13;;;2.90;;
49514;SDS011;35415;47.870;16.058;2023-06-14T02:45:12;7.03;;;2.55;;
49514;SDS011;35415;47.870;16.058;2023-06-14T02:47:41;4.90;;;3.22;;
49514;SDS011;35415;47.870;16.058;2023-06-14T02:50:08;5.65;;;3.00;;
49514;SDS011;35415;47.870;16.058;2023-06-14T02:52:35;6.30;;;3.13;;
49514;SDS011;35415;47.870;16.058;2023-06-14T02:55:03;4.32;;;2.70;;
49514;SDS011;35415;47.870;16.058;2023-06-14T02:57:31;4.53;;;2.92;;
49514;SDS011;35415;47.870;16.058;2023-06-14T02:59:58;3.60;;;2.65;;
49514;SDS011;35415;47.870;16.058;2023-06-14T03:02:25;4.93;;;2.70;;
49514;SDS011;35415;47.870;16.058;2023-06-14T03:04:54;3.75;;;2.92;;
49514;SDS011;35415;47.870;16.058;2023-06-14T03:07:27;4.80;;;3.28;;
49514;SDS011;35415;47.870;16.058;2023-06-14T03:09:55;4.13;;;3.00;;
49514;SDS011;35415;47.870;16.058;2023-06-14T03:12:22;4.35;;;3.13;;
49514;SDS011;35415;47.870;16.058;2023-06-14T03:14:50;5.88;;;3.15;;
49514;SDS011;35415;47.870;16.058;2023-06-14T03:17:19;5.35;;;3.17;;
49514;SDS011;35415;47.870;16.058;2023-06-14T03:19:47;4.30;;;2.95;;
49514;SDS011;35415;47.870;16.058;2023-06-14T03:22:16;6.18;;;2.95;;
49514;SDS011;35415;47.870;16.058;2023-06-14T03:24:47;6.63;;;3.40;;
49514;SDS011;35415;47.870;16.058;2023-06-14T03:27:19;5.68;;;3.35;;
49514;SDS011;35415;47.870;16.058;2023-06-14T03:29:47;4.03;;;2.75;;
49514;SDS011;35415;47.870;16.058;2023-06-14T03:32:15;4.90;;;3.05;;
49514;SDS011;35415;47.870;16.058;2023-06-14T03:34:46;5.53;;;3.45;;
49514;SDS011;35415;47.870;16.058;2023-06-14T03:37:13;5.32;;;3.42;;
49514;SDS011;35415;47.870;16.058;2023-06-14T03:39:47;4.95;;;3.17;;
49514;SDS011;35415;47.870;16.058;2023-06-14T03:42:15;5.93;;;2.92;;
49514;SDS011;35415;47.870;16.058;2023-06-14T03:44:46;5.60;;;3.42;;
49514;SDS011;35415;47.870;16.058;2023-06-14T03:47:13;14.75;;;4.13;;
49514;SDS011;35415;47.870;16.058;2023-06-14T03:49:41;6.63;;;3.60;;
49514;SDS011;35415;47.870;16.058;2023-06-14T03:52:10;7.50;;;3.22;;
49514;SDS011;35415;47.870;16.058;2023-06-14T03:54:39;3.63;;;2.75;;
49514;SDS011;35415;47.870;16.058;2023-06-14T03:57:10;3.97;;;3.45;;
49514;SDS011;35415;47.870;16.058;2023-06-14T03:59:37;7.18;;;3.85;;
49514;SDS011;35415;47.870;16.058;2023-06-14T04:02:06;6.50;;;3.47;;
49514;SDS011;35415;47.870;16.058;2023-06-14T04:04:34;6.55;;;3.42;;
49514;SDS011;35415;47.870;16.058;2023-06-14T04:07:02;5.95;;;2.90;;
49514;SDS011;35415;47.870;16.058;2023-06-14T04:09:30;7.07;;;3.58;;
49514;SDS011;35415;47.870;16.058;2023-06-14T04:11:57;5.78;;;3.63;;
49514;SDS011;35415;47.870;16.058;2023-06-14T04:14:26;5.35;;;3.33;;
49514;SDS011;35415;47.870;16.058;2023-06-14T04:16:54;8.02;;;3.75;;
49514;SDS011;35415;47.870;16.058;2023-06-14T04:19:21;5.93;;;4.07;;
49514;SDS011;35415;47.870;16.058;2023-06-14T04:21:48;5.28;;;4.03;;
49514;SDS011;35415;47.870;16.058;2023-06-14T04:24:16;4.57;;;3.20;;
49514;SDS011;35415;47.870;16.058;2023-06-14T04:26:44;5.22;;;3.60;;
49514;SDS011;35415;47.870;16.058;2023-06-14T04:29:13;5.43;;;3.88;;
49514;SDS011;35415;47.870;16.058;2023-06-14T04:31:43;8.05;;;3.35;;
49514;SDS011;35415;47.870;16.058;2023-06-14T04:34:11;6.40;;;3.60;;
49514;SDS011;35415;47.870;16.058;2023-06-14T04:36:41;5.00;;;3.22;;
49514;SDS011;35415;47.870;16.058;2023-06-14T04:39:16;8.45;;;3.70;;
49514;SDS011;35415;47.870;16.058;2023-06-14T04:41:44;4.70;;;3.50;;
49514;SDS011;35415;47.870;16.058;2023-06-14T04:44:18;5.82;;;3.47;;
49514;SDS011;35415;47.870;16.058;2023-06-14T04:46:56;7.72;;;4.43;;
49514;SDS011;35415;47.870;16.058;2023-06-14T04:49:30;5.47;;;3.28;;
49514;SDS011;35415;47.870;16.058;2023-06-14T04:52:01;4.53;;;3.47;;
49514;SDS011;35415;47.870;16.058;2023-06-14T04:54:45;4.85;;;3.22;;
49514;SDS011;35415;47.870;16.058;2023-06-14T04:57:21;5.03;;;3.70;;
49514;SDS011;35415;47.870;16.058;2023-06-14T04:59:50;8.07;;;3.42;;
49514;SDS011;35415;47.870;16.058;2023-06-14T05:02:22;6.40;;;3.70;;
49514;SDS011;35415;47.870;16.058;2023-06-14T05:04:53;4.95;;;3.60;;
49514;SDS011;35415;47.870;16.058;2023-06-14T05:07:26;3.85;;;3.30;;
49514;SDS011;35415;47.870;16.058;2023-06-14T05:09:54;4.65;;;3.30;;
49514;SDS011;35415;47.870;16.058;2023-06-14T05:12:21;5.40;;;4.10;;
49514;SDS011;35415;47.870;16.058;2023-06-14T05:14:49;5.72;;;3.95;;
49514;SDS011;35415;47.870;16.058;2023-06-14T05:17:20;5.40;;;3.70;;
49514;SDS011;35415;47.870;16.058;2023-06-14T05:19:52;7.82;;;3.65;;
49514;SDS011;35415;47.870;16.058;2023-06-14T05:22:23;6.20;;;3.40;;
49514;SDS011;35415;47.870;16.058;2023-06-14T05:24:52;5.43;;;3.65;;
49514;SDS011;35415;47.870;16.058;2023-06-14T05:27:22;6.70;;;4.07;;
49514;SDS011;35415;47.870;16.058;2023-06-14T05:29:53;5.88;;;3.47;;
49514;SDS011;35415;47.870;16.058;2023-06-14T05:32:28;7.35;;;3.60;;
49514;SDS011;35415;47.870;16.058;2023-06-14T05:34:57;7.40;;;3.85;;
49514;SDS011;35415;47.870;16.058;2023-06-14T05:37:24;8.88;;;4.25;;
49514;SDS011;35415;47.870;16.058;2023-06-14T05:39:54;6.15;;;3.80;;
49514;SDS011;35415;47.870;16.058;2023-06-14T05:42:22;7.15;;;3.35;;
49514;SDS011;35415;47.870;16.058;2023-06-14T05:44:49;4.38;;;3.33;;
49514;SDS011;35415;47.870;16.058;2023-06-14T05:47:20;4.70;;;3.72;;
49514;SDS011;35415;47.870;16.058;2023-06-14T05:49:49;7.87;;;4.73;;
49514;SDS011;35415;47.870;16.058;2023-06-14T05:52:23;7.15;;;3.75;;
49514;SDS011;35415;47.870;16.058;2023-06-14T05:55:04;4.43;;;3.45;;
49514;SDS011;35415;47.870;16.058;2023-06-14T05:57:32;4.38;;;3.70;;
49514;SDS011;35415;47.870;16.058;2023-06-14T05:59:59;4.68;;;3.40;;
49514;SDS011;35415;47.870;16.058;2023-06-14T06:02:30;4.82;;;3.05;;
49514;SDS011;35415;47.870;16.058;2023-06-14T06:05:03;7.10;;;4.05;;
49514;SDS011;35415;47.870;16.058;2023-06-14T06:07:31;4.65;;;3.72;;
49514;SDS011;35415;47.870;16.058;2023-06-14T06:09:58;5.72;;;3.38;;
49514;SDS011;35415;47.870;16.058;2023-06-14T06:12:27;29.67;;;5.07;;
49514;SDS011;35415;47.870;16.058;2023-06-14T06:14:54;6.85;;;3.42;;
49514;SDS011;35415;47.870;16.058;2023-06-14T06:17:22;5.07;;;3.70;;
49514;SDS011;35415;47.870;16.058;2023-06-14T06:19:50;4.13;;;3.25;;
49514;SDS011;35415;47.870;16.058;2023-06-14T06:22:22;4.40;;;3.20;;
49514;SDS011;35415;47.870;16.058;2023-06-14T06:24:52;4.88;;;3.30;;
49514;SDS011;35415;47.870;16.058;2023-06-14T06:27:20;7.20;;;3.22;;
49514;SDS011;35415;47.870;16.058;2023-06-14T06:29:48;10.32;;;3.70;;
49514;SDS011;35415;47.870;16.058;2023-06-14T06:32:21;7.38;;;4.57;;
49514;SDS011;35415;47.870;16.058;2023-06-14T06:34:48;5.32;;;3.40;;
49514;SDS011;35415;47.870;16.058;2023-06-14T06:37:22;3.67;;;2.72;;
49514;SDS011;35415;47.870;16.058;2023-06-14T06:39:49;3.88;;;2.22;;
49514;SDS011;35415;47.870;16.058;2023-06-14T06:42:20;7.78;;;3.22;;
49514;SDS011;35415;47.870;16.058;2023-06-14T06:44:48;3.25;;;2.50;;
49514;SDS011;35415;47.870;16.058;2023-06-14T06:47:23;4.40;;;2.53;;
49514;SDS011;35415;47.870;16.058;2023-06-14T06:49:52;5.88;;;2.88;;
49514;SDS011;35415;47.870;16.058;2023-06-14T06:52:36;5.72;;;2.97;;
49514;SDS011;35415;47.870;16.058;2023-06-14T06:55:04;7.57;;;3.22;;
49514;SDS011;35415;47.870;16.058;2023-06-14T06:57:38;4.15;;;2.60;;
49514;SDS011;35415;47.870;16.058;2023-06-14T07:00:07;4.93;;;2.58;;
49514;SDS011;35415;47.870;16.058;2023-06-14T07:02:37;3.97;;;2.75;;
49514;SDS011;35415;47.870;16.058;2023-06-14T07:05:05;4.93;;;2.10;;
49514;SDS011;35415;47.870;16.058;2023-06-14T07:07:34;3.42;;;2.40;;
49514;SDS011;35415;47.870;16.058;2023-06-14T07:10:02;3.38;;;2.60;;
49514;SDS011;35415;47.870;16.058;2023-06-14T07:12:30;3.38;;;2.42;;
49514;SDS011;35415;47.870;16.058;2023-06-14T07:15:04;4.93;;;2.40;;
49514;SDS011;35415;47.870;16.058;2023-06-14T07:17:33;3.05;;;2.30;;
49514;SDS011;35415;47.870;16.058;2023-06-14T07:20:02;3.80;;;2.35;;
49514;SDS011;35415;47.870;16.058;2023-06-14T07:22:35;4.00;;;2.60;;
49514;SDS011;35415;47.870;16.058;2023-06-14T07:25:08;2.90;;;2.22;;
49514;SDS011;35415;47.870;16.058;2023-06-14T07:27:39;3.05;;;2.40;;
49514;SDS011;35415;47.870;16.058;2023-06-14T07:30:10;5.15;;;2.05;;
49514;SDS011;35415;47.870;16.058;2023-06-14T07:32:38;3.80;;;2.10;;
49514;SDS011;35415;47.870;16.058;2023-06-14T07:35:06;4.20;;;2.03;;
49514;SDS011;35415;47.870;16.058;2023-06-14T07:38:02;3.03;;;2.22;;
49514;SDS011;35415;47.870;16.058;2023-06-14T07:40:30;3.78;;;2.28;;
49514;SDS011;35415;47.870;16.058;2023-06-14T07:42:58;3.20;;;2.60;;
49514;SDS011;35415;47.870;16.058;2023-06-14T07:45:28;3.25;;;2.20;;
49514;SDS011;35415;47.870;16.058;2023-06-14T07:47:59;3.72;;;2.30;;
49514;SDS011;35415;47.870;16.058;2023-06-14T07:50:26;2.42;;;1.88;;
49514;SDS011;35415;47.870;16.058;2023-06-14T07:52:56;3.88;;;2.22;;
49514;SDS011;35415;47.870;16.058;2023-06-14T07:55:30;2.67;;;2.40;;
49514;SDS011;35415;47.870;16.058;2023-06-14T07:58:04;3.92;;;2.25;;
49514;SDS011;35415;47.870;16.058;2023-06-14T08:00:32;4.53;;;3.30;;
49514;SDS011;35415;47.870;16.058;2023-06-14T08:03:02;2.35;;;2.03;;
49514;SDS011;35415;47.870;16.058;2023-06-14T08:05:32;4.43;;;2.40;;
49514;SDS011;35415;47.870;16.058;2023-06-14T08:08:03;2.90;;;2.10;;
49514;SDS011;35415;47.870;16.058;2023-06-14T08:10:31;8.60;;;2.50;;
49514;SDS011;35415;47.870;16.058;2023-06-14T08:13:11;3.30;;;2.17;;
49514;SDS011;35415;47.870;16.058;2023-06-14T08:15:43;3.53;;;2.15;;
49514;SDS011;35415;47.870;16.058;2023-06-14T08:18:27;5.65;;;2.30;;
49514;SDS011;35415;47.870;16.058;2023-06-14T08:20:55;4.70;;;1.98;;
49514;SDS011;35415;47.870;16.058;2023-06-14T08:23:53;4.22;;;1.77;;
49514;SDS011;35415;47.870;16.058;2023-06-14T08:26:26;2.47;;;1.85;;
49514;SDS011;35415;47.870;16.058;2023-06-14T08:29:18;2.28;;;1.60;;
49514;SDS011;35415;47.870;16.058;2023-06-14T08:31:48;2.55;;;1.88;;
49514;SDS011;35415;47.870;16.058;2023-06-14T08:34:24;4.28;;;1.90;;
49514;SDS011;35415;47.870;16.058;2023-06-14T08:36:52;8.88;;;2.33;;
49514;SDS011;35415;47.870;16.058;2023-06-14T08:39:24;2.60;;;1.80;;
49514;SDS011;35415;47.870;16.058;2023-06-14T08:41:51;3.50;;;1.73;;
49514;SDS011;35415;47.870;16.058;2023-06-14T08:44:19;8.90;;;2.95;;
49514;SDS011;35415;47.870;16.058;2023-06-14T08:46:54;4.88;;;2.08;;
49514;SDS011;35415;47.870;16.058;2023-06-14T08:49:25;6.05;;;2.58;;
49514;SDS011;35415;47.870;16.058;2023-06-14T08:52:03;8.10;;;2.85;;
49514;SDS011;35415;47.870;16.058;2023-06-14T08:54:37;15.25;;;3.28;;
49514;SDS011;35415;47.870;16.058;2023-06-14T08:57:16;21.15;;;5.55;;
49514;SDS011;35415;47.870;16.058;2023-06-14T08:59:50;4.32;;;2.00;;
49514;SDS011;35415;47.870;16.058;2023-06-14T09:02:27;8.10;;;2.90;;
49514;SDS011;35415;47.870;16.058;2023-06-14T09:04:58;8.82;;;2.83;;
49514;SDS011;35415;47.870;16.058;2023-06-14T09:07:37;4.28;;;2.00;;
49514;SDS011;35415;47.870;16.058;2023-06-14T09:10:12;2.53;;;2.10;;
49514;SDS011;35415;47.870;16.058;2023-06-14T09:12:42;2.75;;;2.15;;
49514;SDS011;35415;47.870;16.058;2023-06-14T09:15:15;6.72;;;3.05;;
49514;SDS011;35415;47.870;16.058;2023-06-14T09:17:45;3.78;;;2.30;;
49514;SDS011;35415;47.870;16.058;2023-06-14T09:20:13;6.50;;;3.40;;
49514;SDS011;35415;47.870;16.058;2023-06-14T09:22:53;4.72;;;2.10;;
49514;SDS011;35415;47.870;16.058;2023-06-14T09:25:22;4.95;;;1.70;;
49514;SDS011;35415;47.870;16.058;2023-06-14T09:27:52;1.88;;;1.77;;
49514;SDS011;35415;47.870;16.058;2023-06-14T09:30:30;4.80;;;2.28;;
49514;SDS011;35415;47.870;16.058;2023-06-14T09:32:57;5.10;;;1.90;;
49514;SDS011;35415;47.870;16.058;2023-06-14T09:35:27;2.92;;;2.10;;
49514;SDS011;35415;47.870;16.058;2023-06-14T09:37:56;5.65;;;2.30;;
49514;SDS011;35415;47.870;16.058;2023-06-14T09:40:26;2.03;;;1.80;;
49514;SDS011;35415;47.870;16.058;2023-06-14T09:42:54;1.80;;;1.70;;
49514;SDS011;35415;47.870;16.058;2023-06-14T09:45:22;2.00;;;1.80;;
49514;SDS011;35415;47.870;16.058;2023-06-14T09:47:50;4.00;;;2.55;;
49514;SDS011;35415;47.870;16.058;2023-06-14T09:50:17;3.15;;;2.00;;
49514;SDS011;35415;47.870;16.058;2023-06-14T09:52:45;2.45;;;1.77;;
49514;SDS011;35415;47.870;16.058;2023-06-14T09:55:16;5.00;;;2.03;;
49514;SDS011;35415;47.870;16.058;2023-06-14T09:57:45;2.45;;;1.88;;
49514;SDS011;35415;47.870;16.058;2023-06-14T10:00:16;2.97;;;1.98;;
49514;SDS011;35415;47.870;16.058;2023-06-14T10:02:46;2.50;;;1.95;;
49514;SDS011;35415;47.870;16.058;2023-06-14T10:05:18;2.83;;;1.80;;
49514;SDS011;35415;47.870;16.058;2023-06-14T10:07:48;3.42;;;2.10;;
49514;SDS011;35415;47.870;16.058;2023-06-14T10:12:49;3.50;;;2.65;;
49514;SDS011;35415;47.870;16.058;2023-06-14T10:15:18;3.38;;;2.63;;
49514;SDS011;35415;47.870;16.058;2023-06-14T10:17:51;2.92;;;2.00;;
49514;SDS011;35415;47.870;16.058;2023-06-14T10:20:25;4.45;;;1.70;;
49514;SDS011;35415;47.870;16.058;2023-06-14T10:23:00;3.40;;;2.42;;
49514;SDS011;35415;47.870;16.058;2023-06-14T10:25:35;4.38;;;2.58;;
49514;SDS011;35415;47.870;16.058;2023-06-14T10:28:06;5.30;;;2.35;;
49514;SDS011;35415;47.870;16.058;2023-06-14T10:31:02;8.70;;;2.88;;
49514;SDS011;35415;47.870;16.058;2023-06-14T10:33:30;2.42;;;2.08;;
49514;SDS011;35415;47.870;16.058;2023-06-14T10:36:24;3.33;;;2.00;;
49514;SDS011;35415;47.870;16.058;2023-06-14T10:38:59;2.55;;;2.22;;
49514;SDS011;35415;47.870;16.058;2023-06-14T10:41:31;5.05;;;2.35;;
49514;SDS011;35415;47.870;16.058;2023-06-14T10:44:12;3.47;;;2.20;;
49514;SDS011;35415;47.870;16.058;2023-06-14T10:46:58;3.42;;;1.90;;
49514;SDS011;35415;47.870;16.058;2023-06-14T10:49:37;2.60;;;2.20;;
49514;SDS011;35415;47.870;16.058;2023-06-14T10:52:10;2.75;;;2.47;;
49514;SDS011;35415;47.870;16.058;2023-06-14T10:54:58;2.67;;;1.95;;
49514;SDS011;35415;47.870;16.058;2023-06-14T10:57:31;3.60;;;2.00;;
49514;SDS011;35415;47.870;16.058;2023-06-14T11:00:02;3.42;;;2.10;;
49514;SDS011;35415;47.870;16.058;2023-06-14T11:05:58;5.10;;;2.20;;
49514;SDS011;35415;47.870;16.058;2023-06-14T11:11:32;3.10;;;2.22;;
49514;SDS011;35415;47.870;16.058;2023-06-14T11:14:00;2.33;;;2.00;;
49514;SDS011;35415;47.870;16.058;2023-06-14T11:16:29;2.65;;;2.08;;
49514;SDS011;35415;47.870;16.058;2023-06-14T11:18:59;4.97;;;1.92;;
49514;SDS011;35415;47.870;16.058;2023-06-14T11:21:28;4.00;;;2.00;;
49514;SDS011;35415;47.870;16.058;2023-06-14T11:23:58;3.20;;;1.92;;
49514;SDS011;35415;47.870;16.058;2023-06-14T11:26:26;4.82;;;2.05;;
49514;SDS011;35415;47.870;16.058;2023-06-14T11:28:57;2.90;;;1.90;;
49514;SDS011;35415;47.870;16.058;2023-06-14T11:31:25;6.78;;;2.75;;
49514;SDS011;35415;47.870;16.058;2023-06-14T11:33:55;3.53;;;1.98;;
49514;SDS011;35415;47.870;16.058;2023-06-14T11:36:25;1.92;;;1.73;;
49514;SDS011;35415;47.870;16.058;2023-06-14T11:38:58;4.17;;;2.10;;
49514;SDS011;35415;47.870;16.058;2023-06-14T11:41:31;3.38;;;2.17;;
49514;SDS011;35415;47.870;16.058;2023-06-14T11:44:00;3.10;;;1.98;;
49514;SDS011;35415;47.870;16.058;2023-06-14T11:46:28;3.50;;;2.17;;
49514;SDS011;35415;47.870;16.058;2023-06-14T11:48:57;2.30;;;1.85;;
49514;SDS011;35415;47.870;16.058;2023-06-14T11:51:28;3.30;;;1.77;;
49514;SDS011;35415;47.870;16.058;2023-06-14T11:53:57;2.05;;;1.80;;
49514;SDS011;35415;47.870;16.058;2023-06-14T11:56:24;4.20;;;1.90;;
49514;SDS011;35415;47.870;16.058;2023-06-14T11:58:52;3.67;;;2.05;;
49514;SDS011;35415;47.870;16.058;2023-06-14T12:01:21;3.38;;;2.17;;
49514;SDS011;35415;47.870;16.058;2023-06-14T12:03:49;2.40;;;2.20;;
49514;SDS011;35415;47.870;16.058;2023-06-14T12:06:25;2.83;;;2.15;;
49514;SDS011;35415;47.870;16.058;2023-06-14T12:08:59;3.13;;;2.63;;
49514;SDS011;35415;47.870;16.058;2023-06-14T12:11:32;10.85;;;8.55;;
49514;SDS011;35415;47.870;16.058;2023-06-14T12:14:03;6.75;;;5.18;;
49514;SDS011;35415;47.870;16.058;2023-06-14T12:16:31;3.88;;;2.72;;
49514;SDS011;35415;47.870;16.058;2023-06-14T12:22:11;6.68;;;4.00;;
49514;SDS011;35415;47.870;16.058;2023-06-14T12:24:45;3.13;;;2.42;;
49514;SDS011;35415;47.870;16.058;2023-06-14T12:27:39;3.80;;;3.17;;
49514;SDS011;35415;47.870;16.058;2023-06-14T12:32:57;2.55;;;1.92;;
49514;SDS011;35415;47.870;16.058;2023-06-14T12:35:29;5.45;;;3.50;;
49514;SDS011;35415;47.870;16.058;2023-06-14T12:37:58;3.25;;;2.00;;
49514;SDS011;35415;47.870;16.058;2023-06-14T12:40:44;1.98;;;1.80;;
49514;SDS011;35415;47.870;16.058;2023-06-14T12:43:12;2.22;;;2.03;;
49514;SDS011;35415;47.870;16.058;2023-06-14T12:45:39;2.38;;;2.08;;
49514;SDS011;35415;47.870;16.058;2023-06-14T12:50:56;3.13;;;2.10;;
49514;SDS011;35415;47.870;16.058;2023-06-14T12:53:25;2.20;;;1.92;;
49514;SDS011;35415;47.870;16.058;2023-06-14T12:55:52;6.10;;;2.60;;
49514;SDS011;35415;47.870;16.058;2023-06-14T12:58:19;2.42;;;1.83;;
49514;SDS011;35415;47.870;16.058;2023-06-14T13:00:50;2.80;;;1.95;;
49514;SDS011;35415;47.870;16.058;2023-06-14T13:03:18;2.10;;;1.90;;
49514;SDS011;35415;47.870;16.058;2023-06-14T13:05:50;2.53;;;1.92;;
49514;SDS011;35415;47.870;16.058;2023-06-14T13:13:56;4.20;;;1.92;;
49514;SDS011;35415;47.870;16.058;2023-06-14T13:16:24;4.22;;;2.20;;
49514;SDS011;35415;47.870;16.058;2023-06-14T13:18:56;2.30;;;2.10;;
49514;SDS011;35415;47.870;16.058;2023-06-14T13:21:29;4.07;;;1.85;;
49514;SDS011;35415;47.870;16.058;2023-06-14T13:23:57;4.28;;;1.98;;
49514;SDS011;35415;47.870;16.058;2023-06-14T13:26:24;3.25;;;1.80;;
49514;SDS011;35415;47.870;16.058;2023-06-14T13:28:52;7.38;;;3.83;;
49514;SDS011;35415;47.870;16.058;2023-06-14T13:31:20;2.38;;;2.13;;
49514;SDS011;35415;47.870;16.058;2023-06-14T13:33:47;3.40;;;2.05;;
49514;SDS011;35415;47.870;16.058;2023-06-14T13:36:14;2.63;;;2.28;;
49514;SDS011;35415;47.870;16.058;2023-06-14T13:38:41;2.40;;;1.85;;
49514;SDS011;35415;47.870;16.058;2023-06-14T13:41:09;4.57;;;2.15;;
49514;SDS011;35415;47.870;16.058;2023-06-14T13:43:35;4.00;;;2.00;;
49514;SDS011;35415;47.870;16.058;2023-06-14T13:46:03;3.33;;;2.22;;
49514;SDS011;35415;47.870;16.058;2023-06-14T13:48:31;2.53;;;2.30;;
49514;SDS011;35415;47.870;16.058;2023-06-14T13:50:59;4.47;;;1.90;;
49514;SDS011;35415;47.870;16.058;2023-06-14T13:53:29;3.50;;;2.33;;
49514;SDS011;35415;47.870;16.058;2023-06-14T13:55:56;4.45;;;2.30;;
49514;SDS011;35415;47.870;16.058;2023-06-14T13:58:24;3.00;;;2.33;;
49514;SDS011;35415;47.870;16.058;2023-06-14T14:00:51;4.15;;;2.13;;
49514;SDS011;35415;47.870;16.058;2023-06-14T14:03:18;4.28;;;2.13;;
49514;SDS011;35415;47.870;16.058;2023-06-14T14:05:47;4.13;;;2.20;;
49514;SDS011;35415;47.870;16.058;2023-06-14T14:11:02;3.85;;;2.40;;
49514;SDS011;35415;47.870;16.058;2023-06-14T14:13:29;3.20;;;2.65;;
49514;SDS011;35415;47.870;16.058;2023-06-14T14:15:56;3.05;;;2.40;;
49514;SDS011;35415;47.870;16.058;2023-06-14T14:18:24;8.60;;;2.22;;
49514;SDS011;35415;47.870;16.058;2023-06-14T14:20:53;3.33;;;2.28;;
49514;SDS011;35415;47.870;16.058;2023-06-14T14:23:21;4.47;;;2.13;;
49514;SDS011;35415;47.870;16.058;2023-06-14T14:25:48;2.38;;;2.15;;
49514;SDS011;35415;47.870;16.058;2023-06-14T14:28:31;3.42;;;2.45;;
49514;SDS011;35415;47.870;16.058;2023-06-14T14:31:01;3.47;;;2.42;;
49514;SDS011;35415;47.870;16.058;2023-06-14T14:33:29;6.10;;;2.30;;
49514;SDS011;35415;47.870;16.058;2023-06-14T14:35:58;6.15;;;2.40;;
49514;SDS011;35415;47.870;16.058;2023-06-14T14:38:29;2.53;;;2.17;;
49514;SDS011;35415;47.870;16.058;2023-06-14T14:40:56;8.70;;;3.08;;
49514;SDS011;35415;47.870;16.058;2023-06-14T14:43:24;2.60;;;2.33;;
49514;SDS011;35415;47.870;16.058;2023-06-14T14:45:51;7.35;;;2.45;;
49514;SDS011;35415;47.870;16.058;2023-06-14T14:48:18;4.72;;;2.55;;
49514;SDS011;35415;47.870;16.058;2023-06-14T14:50:45;4.85;;;2.60;;
49514;SDS011;35415;47.870;16.058;2023-06-14T14:53:15;3.15;;;2.40;;
49514;SDS011;35415;47.870;16.058;2023-06-14T14:55:43;3.83;;;2.38;;
49514;SDS011;35415;47.870;16.058;2023-06-14T14:58:13;4.18;;;2.30;;
49514;SDS011;35415;47.870;16.058;2023-06-14T15:00:43;3.58;;;2.15;;
49514;SDS011;35415;47.870;16.058;2023-06-14T15:03:10;3.65;;;2.22;;
49514;SDS011;35415;47.870;16.058;2023-06-14T15:05:37;2.47;;;1.95;;
49514;SDS011;35415;47.870;16.058;2023-06-14T15:08:04;4.63;;;2.40;;
49514;SDS011;35415;47.870;16.058;2023-06-14T15:10:37;6.15;;;2.28;;
49514;SDS011;35415;47.870;16.058;2023-06-14T15:13:06;4.00;;;2.28;;
49514;SDS011;35415;47.870;16.058;2023-06-14T15:15:34;3.22;;;2.35;;
49514;SDS011;35415;47.870;16.058;2023-06-14T15:18:01;2.53;;;2.30;;
49514;SDS011;35415;47.870;16.058;2023-06-14T15:20:29;3.17;;;2.13;;